Dong Hao — 9LU2555 — position and weather

sailwx.info

Track history (hours):
 
Tides and Currents Weather Stations Pressure Air Temp Water Temp Dewpoint Dewpoint Depression Visibility Wind Speed Wind Dir Waves Ship Positions

Dong Hao

Last reported at 2017-Nov-16 09:34 UTC. Time now 2017-Nov-24 05:52 UTC.
Position N 34°37' E 135°01'.

Length 76 m; draft 4.6 m.

Type: Cargo ship. MMSI: 667001752.

Date/timePositionNaut miles runAvg speedWind from/ knotsBaromVisibWave heightAir tempDewpointWater temp
2017-Nov-16 09:34N 34°37' E 135°01'211.6
2017-Nov-16 09:22N 34°36' E 135°04'3 9.0
2017-Nov-16 09:00N 34°36' E 135°08'5 9.1
2017-Nov-16 08:30N 34°36' E 135°13'4 8.8
2017-Nov-16 08:00N 34°36' E 135°19'4 8.5
2017-Nov-16 07:30N 34°38' E 135°23'2 3.2
2017-Nov-16 06:55N 34°37' E 135°25'0 0.0
2017-Nov-16 03:49N 34°37' E 135°25'0 0.0
2017-Nov-16 01:19N 34°37' E 135°25'0 0.0
2017-Nov-16 00:55N 34°37' E 135°25'0 0.0
2017-Nov-16 00:19N 34°37' E 135°25'0 0.0
2017-Nov-15 23:43N 34°37' E 135°25'0 0.0
2017-Nov-15 23:19N 34°37' E 135°25'0 0.0
2017-Nov-15 22:07N 34°37' E 135°25'0 0.0
2017-Nov-15 20:31N 34°37' E 135°25'0 0.0
2017-Nov-15 20:13N 34°37' E 135°25'0 0.0
2017-Nov-15 18:49N 34°37' E 135°25'0 0.0
2017-Nov-15 18:13N 34°37' E 135°25'0 0.0
2017-Nov-15 17:55N 34°37' E 135°25'0 0.0
2017-Nov-15 17:19N 34°37' E 135°25'0 0.0
2017-Nov-15 16:55N 34°37' E 135°25'0 0.0
2017-Nov-15 15:25N 34°37' E 135°25'0 0.0
2017-Nov-15 14:55N 34°37' E 135°25'0 0.0
2017-Nov-15 14:25N 34°37' E 135°25'0 0.0
2017-Nov-15 13:49N 34°37' E 135°25'0 0.0
2017-Nov-15 13:25N 34°37' E 135°25'0 0.0
2017-Nov-15 12:49N 34°37' E 135°25'0 0.0
2017-Nov-15 12:25N 34°37' E 135°25'0 0.0
2017-Nov-15 11:55N 34°37' E 135°25'0 0.0
2017-Nov-15 11:25N 34°37' E 135°25'0 0.0
2017-Nov-15 10:55N 34°37' E 135°25'0 0.0
2017-Nov-15 10:19N 34°37' E 135°25'0 0.0
2017-Nov-15 09:55N 34°37' E 135°25'0 0.0
2017-Nov-15 09:13N 34°37' E 135°25'0 0.0
2017-Nov-15 08:49N 34°37' E 135°25'0 0.0
2017-Nov-14 23:25N 34°37' E 135°25'0 0.0
2017-Nov-14 22:43N 34°37' E 135°25'0 0.0
2017-Nov-14 22:29N 34°37' E 135°25'2 3.7
2017-Nov-14 22:00N 34°38' E 135°23'1 1.7
2017-Nov-14 21:30N 34°37' E 135°23'0 0.0
2017-Nov-14 20:52N 34°37' E 135°23'0 0.0
2017-Nov-14 20:28N 34°37' E 135°23'0 0.1
2017-Nov-14 19:58N 34°37' E 135°23'0 0.1
2017-Nov-14 19:28N 34°37' E 135°23'0 0.1
2017-Nov-14 18:46N 34°37' E 135°23'0 0.0
2017-Nov-14 18:22N 34°37' E 135°23'0 0.0
2017-Nov-14 17:58N 34°37' E 135°23'0 0.0
2017-Nov-14 17:28N 34°37' E 135°23'0 0.0
2017-Nov-14 17:00N 34°37' E 135°23'0 0.0
2017-Nov-14 16:30N 34°37' E 135°23'0 0.0
2017-Nov-14 15:49N 34°37' E 135°23'0 0.0
2017-Nov-14 15:31N 34°37' E 135°23'0 0.0
2017-Nov-14 15:00N 34°37' E 135°23'0 0.0
2017-Nov-14 14:30N 34°37' E 135°23'0 0.0
2017-Nov-14 14:01N 34°37' E 135°23'0 0.0
2017-Nov-14 13:31N 34°37' E 135°23'0 0.0
2017-Nov-14 13:00N 34°37' E 135°23'0 0.0
2017-Nov-14 12:30N 34°37' E 135°23'0 0.0
2017-Nov-14 12:00N 34°37' E 135°23'0 0.0
2017-Nov-14 11:30N 34°37' E 135°23'0 0.0
2017-Nov-14 10:59N 34°37' E 135°23'0 0.0
2017-Nov-14 10:30N 34°37' E 135°23'0 0.0
2017-Nov-14 10:00N 34°37' E 135°23'0 0.0
2017-Nov-14 09:29N 34°37' E 135°23'0 0.0
2017-Nov-14 09:00N 34°37' E 135°23'0 0.0
2017-Nov-14 08:28N 34°37' E 135°23'0 0.0
2017-Nov-14 07:58N 34°37' E 135°23'0 0.0
2017-Nov-14 07:28N 34°37' E 135°23'0 0.1
2017-Nov-14 07:00N 34°37' E 135°23'0 0.0
2017-Nov-14 06:30N 34°37' E 135°23'0 0.0
2017-Nov-14 06:00N 34°37' E 135°23'0 0.0
2017-Nov-14 05:31N 34°37' E 135°23'0 0.0
2017-Nov-14 05:00N 34°37' E 135°23'0 0.0
2017-Nov-14 04:30N 34°37' E 135°23'0 0.0
2017-Nov-14 04:00N 34°37' E 135°23'0 0.0
2017-Nov-14 03:30N 34°37' E 135°23'0 0.0
2017-Nov-14 02:59N 34°37' E 135°23'0 0.0
2017-Nov-14 02:30N 34°37' E 135°23'0 0.0
2017-Nov-14 02:00N 34°37' E 135°23'0 0.0
2017-Nov-14 01:25N 34°37' E 135°23'0 0.0
2017-Nov-14 00:58N 34°37' E 135°23'0 0.0
2017-Nov-14 00:15N 34°37' E 135°23'0 0.1
2017-Nov-14 00:01N 34°37' E 135°23'0 0.0
2017-Nov-13 23:30N 34°37' E 135°23'0 0.0
2017-Nov-13 23:00N 34°37' E 135°23'0 0.0
2017-Nov-13 22:31N 34°37' E 135°23'0 0.0
2017-Nov-13 21:57N 34°37' E 135°23'8 0.4
2017-Nov-13 01:56N 34°42' E 135°14'0 0.0
2017-Nov-13 01:26N 34°42' E 135°14'0 0.0
2017-Nov-13 00:50N 34°42' E 135°14'0 0.0
2017-Nov-13 00:20N 34°42' E 135°14'0 0.0
2017-Nov-12 23:50N 34°42' E 135°14'0 0.0
2017-Nov-12 23:26N 34°42' E 135°14'0 0.0
2017-Nov-12 22:56N 34°42' E 135°14'0 0.3
2017-Nov-12 22:30N 34°42' E 135°15'3 6.4
2017-Nov-12 22:00N 34°39' E 135°16'3 6.1
2017-Nov-12 21:30N 34°37' E 135°13'0 0.2
2017-Nov-12 20:55N 34°37' E 135°13'0 0.0
2017-Nov-12 20:25N 34°37' E 135°13'0 0.0
2017-Nov-12 19:55N 34°37' E 135°13'0 0.0
2017-Nov-12 19:19N 34°37' E 135°13'0 0.0
2017-Nov-12 18:55N 34°37' E 135°13'0 0.0
2017-Nov-12 18:30N 34°37' E 135°13'0 0.0
2017-Nov-12 18:00N 34°37' E 135°13'0 0.0
2017-Nov-12 17:30N 34°37' E 135°13'0 0.0
2017-Nov-12 17:00N 34°37' E 135°13'0 0.0
2017-Nov-12 16:30N 34°37' E 135°13'0 0.0
2017-Nov-12 16:00N 34°37' E 135°13'0 0.0
2017-Nov-12 15:30N 34°37' E 135°13'0 0.0
2017-Nov-12 15:00N 34°37' E 135°13'0 0.0
2017-Nov-12 14:30N 34°37' E 135°13'0 0.0
2017-Nov-12 14:00N 34°37' E 135°13'0 0.0
2017-Nov-12 13:30N 34°37' E 135°13'0 0.0
2017-Nov-12 13:00N 34°37' E 135°13'0 0.0
2017-Nov-12 12:30N 34°37' E 135°13'0 0.0
2017-Nov-12 12:00N 34°37' E 135°13'0 0.0
2017-Nov-12 11:30N 34°37' E 135°13'0 0.0
2017-Nov-12 11:00N 34°37' E 135°13'0 0.0
2017-Nov-12 10:30N 34°37' E 135°13'0 0.1
2017-Nov-12 10:00N 34°37' E 135°13'0 0.0
2017-Nov-12 09:30N 34°37' E 135°13'0 0.0
2017-Nov-12 09:00N 34°37' E 135°13'0 0.1
2017-Nov-12 08:30N 34°37' E 135°13'0 0.0
2017-Nov-12 08:00N 34°37' E 135°13'0 0.1
2017-Nov-12 07:30N 34°37' E 135°13'0 0.0
2017-Nov-12 07:00N 34°37' E 135°13'0 0.0
2017-Nov-12 06:30N 34°37' E 135°13'0 0.0
2017-Nov-12 06:00N 34°37' E 135°13'0 0.0
2017-Nov-12 05:30N 34°37' E 135°13'0 0.0
2017-Nov-12 05:00N 34°37' E 135°13'0 0.0
2017-Nov-12 04:30N 34°37' E 135°13'0 0.0
2017-Nov-12 04:00N 34°37' E 135°13'0 0.0
2017-Nov-12 03:30N 34°37' E 135°13'0 0.0
2017-Nov-12 03:00N 34°37' E 135°13'0 0.1
2017-Nov-12 02:30N 34°37' E 135°13'0 0.0
2017-Nov-12 02:00N 34°37' E 135°13'0 0.1
2017-Nov-12 01:30N 34°37' E 135°13'0 0.0
2017-Nov-12 01:00N 34°37' E 135°13'0 0.0
2017-Nov-12 00:30N 34°37' E 135°13'0 0.0
2017-Nov-11 23:59N 34°37' E 135°13'0 0.0
2017-Nov-11 23:30N 34°37' E 135°13'0 0.0
2017-Nov-11 23:00N 34°37' E 135°13'0 0.0
2017-Nov-11 22:30N 34°37' E 135°13'0 0.0
2017-Nov-11 22:00N 34°37' E 135°13'0 0.0
2017-Nov-11 21:30N 34°37' E 135°13'0 0.0
2017-Nov-11 21:00N 34°37' E 135°13'0 0.0
2017-Nov-11 20:30N 34°37' E 135°13'0 0.1
2017-Nov-11 20:00N 34°37' E 135°13'0 0.0
2017-Nov-11 19:30N 34°37' E 135°13'0 0.1
2017-Nov-11 19:00N 34°37' E 135°13'0 0.0
2017-Nov-11 18:30N 34°37' E 135°13'0 0.1
2017-Nov-11 18:00N 34°37' E 135°13'0 0.0
2017-Nov-11 17:30N 34°37' E 135°13'0 0.0
2017-Nov-11 17:00N 34°37' E 135°13'0 0.0
2017-Nov-11 16:30N 34°37' E 135°13'0 0.0
2017-Nov-11 16:00N 34°37' E 135°13'0 0.0
2017-Nov-11 15:30N 34°37' E 135°13'0 0.0
2017-Nov-11 15:00N 34°37' E 135°13'0 0.1
2017-Nov-11 14:30N 34°37' E 135°13'0 0.0
2017-Nov-11 14:00N 34°37' E 135°13'0 0.1
2017-Nov-11 13:30N 34°37' E 135°13'4 8.6
2017-Nov-11 13:00N 34°36' E 135°08'510.6
2017-Nov-11 12:29N 34°37' E 135°01'  
Track history (hours):
 
Tides and Currents Weather Stations Pressure Air Temp Water Temp Dewpoint Dewpoint Depression Visibility Wind Speed Wind Dir Waves Ship Positions

Dong Hao

Last reported at 2017-Nov-16 09:34 UTC. Time now 2017-Nov-24 05:52 UTC.
Position N 34°37' E 135°01'.

Length 76 m; draft 4.6 m.

Type: Cargo ship. MMSI: 667001752.

Date/timePositionNaut miles runAvg speedWind from/ knotsBaromVisibWave heightAir tempDewpointWater temp
2017-Nov-16 09:34N 34°37' E 135°01'211.6
2017-Nov-16 09:22N 34°36' E 135°04'3 9.0
2017-Nov-16 09:00N 34°36' E 135°08'5 9.1
2017-Nov-16 08:30N 34°36' E 135°13'4 8.8
2017-Nov-16 08:00N 34°36' E 135°19'4 8.5
2017-Nov-16 07:30N 34°38' E 135°23'2 3.2
2017-Nov-16 06:55N 34°37' E 135°25'0 0.0
2017-Nov-16 03:49N 34°37' E 135°25'0 0.0
2017-Nov-16 01:19N 34°37' E 135°25'0 0.0
2017-Nov-16 00:55N 34°37' E 135°25'0 0.0
2017-Nov-16 00:19N 34°37' E 135°25'0 0.0
2017-Nov-15 23:43N 34°37' E 135°25'0 0.0
2017-Nov-15 23:19N 34°37' E 135°25'0 0.0
2017-Nov-15 22:07N 34°37' E 135°25'0 0.0
2017-Nov-15 20:31N 34°37' E 135°25'0 0.0
2017-Nov-15 20:13N 34°37' E 135°25'0 0.0
2017-Nov-15 18:49N 34°37' E 135°25'0 0.0
2017-Nov-15 18:13N 34°37' E 135°25'0 0.0
2017-Nov-15 17:55N 34°37' E 135°25'0 0.0
2017-Nov-15 17:19N 34°37' E 135°25'0 0.0
2017-Nov-15 16:55N 34°37' E 135°25'0 0.0
2017-Nov-15 15:25N 34°37' E 135°25'0 0.0
2017-Nov-15 14:55N 34°37' E 135°25'0 0.0
2017-Nov-15 14:25N 34°37' E 135°25'0 0.0
2017-Nov-15 13:49N 34°37' E 135°25'0 0.0
2017-Nov-15 13:25N 34°37' E 135°25'0 0.0
2017-Nov-15 12:49N 34°37' E 135°25'0 0.0
2017-Nov-15 12:25N 34°37' E 135°25'0 0.0
2017-Nov-15 11:55N 34°37' E 135°25'0 0.0
2017-Nov-15 11:25N 34°37' E 135°25'0 0.0
2017-Nov-15 10:55N 34°37' E 135°25'0 0.0
2017-Nov-15 10:19N 34°37' E 135°25'0 0.0
2017-Nov-15 09:55N 34°37' E 135°25'0 0.0
2017-Nov-15 09:13N 34°37' E 135°25'0 0.0
2017-Nov-15 08:49N 34°37' E 135°25'0 0.0
2017-Nov-14 23:25N 34°37' E 135°25'0 0.0
2017-Nov-14 22:43N 34°37' E 135°25'0 0.0
2017-Nov-14 22:29N 34°37' E 135°25'2 3.7
2017-Nov-14 22:00N 34°38' E 135°23'1 1.7
2017-Nov-14 21:30N 34°37' E 135°23'0 0.0
2017-Nov-14 20:52N 34°37' E 135°23'0 0.0
2017-Nov-14 20:28N 34°37' E 135°23'0 0.1
2017-Nov-14 19:58N 34°37' E 135°23'0 0.1
2017-Nov-14 19:28N 34°37' E 135°23'0 0.1
2017-Nov-14 18:46N 34°37' E 135°23'0 0.0
2017-Nov-14 18:22N 34°37' E 135°23'0 0.0
2017-Nov-14 17:58N 34°37' E 135°23'0 0.0
2017-Nov-14 17:28N 34°37' E 135°23'0 0.0
2017-Nov-14 17:00N 34°37' E 135°23'0 0.0
2017-Nov-14 16:30N 34°37' E 135°23'0 0.0
2017-Nov-14 15:49N 34°37' E 135°23'0 0.0
2017-Nov-14 15:31N 34°37' E 135°23'0 0.0
2017-Nov-14 15:00N 34°37' E 135°23'0 0.0
2017-Nov-14 14:30N 34°37' E 135°23'0 0.0
2017-Nov-14 14:01N 34°37' E 135°23'0 0.0
2017-Nov-14 13:31N 34°37' E 135°23'0 0.0
2017-Nov-14 13:00N 34°37' E 135°23'0 0.0
2017-Nov-14 12:30N 34°37' E 135°23'0 0.0
2017-Nov-14 12:00N 34°37' E 135°23'0 0.0
2017-Nov-14 11:30N 34°37' E 135°23'0 0.0
2017-Nov-14 10:59N 34°37' E 135°23'0 0.0
2017-Nov-14 10:30N 34°37' E 135°23'0 0.0
2017-Nov-14 10:00N 34°37' E 135°23'0 0.0
2017-Nov-14 09:29N 34°37' E 135°23'0 0.0
2017-Nov-14 09:00N 34°37' E 135°23'0 0.0
2017-Nov-14 08:28N 34°37' E 135°23'0 0.0
2017-Nov-14 07:58N 34°37' E 135°23'0 0.0
2017-Nov-14 07:28N 34°37' E 135°23'0 0.1
2017-Nov-14 07:00N 34°37' E 135°23'0 0.0
2017-Nov-14 06:30N 34°37' E 135°23'0 0.0
2017-Nov-14 06:00N 34°37' E 135°23'0 0.0
2017-Nov-14 05:31N 34°37' E 135°23'0 0.0
2017-Nov-14 05:00N 34°37' E 135°23'0 0.0
2017-Nov-14 04:30N 34°37' E 135°23'0 0.0
2017-Nov-14 04:00N 34°37' E 135°23'0 0.0
2017-Nov-14 03:30N 34°37' E 135°23'0 0.0
2017-Nov-14 02:59N 34°37' E 135°23'0 0.0
2017-Nov-14 02:30N 34°37' E 135°23'0 0.0
2017-Nov-14 02:00N 34°37' E 135°23'0 0.0
2017-Nov-14 01:25N 34°37' E 135°23'0 0.0
2017-Nov-14 00:58N 34°37' E 135°23'0 0.0
2017-Nov-14 00:15N 34°37' E 135°23'0 0.1
2017-Nov-14 00:01N 34°37' E 135°23'0 0.0
2017-Nov-13 23:30N 34°37' E 135°23'0 0.0
2017-Nov-13 23:00N 34°37' E 135°23'0 0.0
2017-Nov-13 22:31N 34°37' E 135°23'0 0.0
2017-Nov-13 21:57N 34°37' E 135°23'8 0.4
2017-Nov-13 01:56N 34°42' E 135°14'0 0.0
2017-Nov-13 01:26N 34°42' E 135°14'0 0.0
2017-Nov-13 00:50N 34°42' E 135°14'0 0.0
2017-Nov-13 00:20N 34°42' E 135°14'0 0.0
2017-Nov-12 23:50N 34°42' E 135°14'0 0.0
2017-Nov-12 23:26N 34°42' E 135°14'0 0.0
2017-Nov-12 22:56N 34°42' E 135°14'0 0.3
2017-Nov-12 22:30N 34°42' E 135°15'3 6.4
2017-Nov-12 22:00N 34°39' E 135°16'3 6.1
2017-Nov-12 21:30N 34°37' E 135°13'0 0.2
2017-Nov-12 20:55N 34°37' E 135°13'0 0.0
2017-Nov-12 20:25N 34°37' E 135°13'0 0.0
2017-Nov-12 19:55N 34°37' E 135°13'0 0.0
2017-Nov-12 19:19N 34°37' E 135°13'0 0.0
2017-Nov-12 18:55N 34°37' E 135°13'0 0.0
2017-Nov-12 18:30N 34°37' E 135°13'0 0.0
2017-Nov-12 18:00N 34°37' E 135°13'0 0.0
2017-Nov-12 17:30N 34°37' E 135°13'0 0.0
2017-Nov-12 17:00N 34°37' E 135°13'0 0.0
2017-Nov-12 16:30N 34°37' E 135°13'0 0.0
2017-Nov-12 16:00N 34°37' E 135°13'0 0.0
2017-Nov-12 15:30N 34°37' E 135°13'0 0.0
2017-Nov-12 15:00N 34°37' E 135°13'0 0.0
2017-Nov-12 14:30N 34°37' E 135°13'0 0.0
2017-Nov-12 14:00N 34°37' E 135°13'0 0.0
2017-Nov-12 13:30N 34°37' E 135°13'0 0.0
2017-Nov-12 13:00N 34°37' E 135°13'0 0.0
2017-Nov-12 12:30N 34°37' E 135°13'0 0.0
2017-Nov-12 12:00N 34°37' E 135°13'0 0.0
2017-Nov-12 11:30N 34°37' E 135°13'0 0.0
2017-Nov-12 11:00N 34°37' E 135°13'0 0.0
2017-Nov-12 10:30N 34°37' E 135°13'0 0.1
2017-Nov-12 10:00N 34°37' E 135°13'0 0.0
2017-Nov-12 09:30N 34°37' E 135°13'0 0.0
2017-Nov-12 09:00N 34°37' E 135°13'0 0.1
2017-Nov-12 08:30N 34°37' E 135°13'0 0.0
2017-Nov-12 08:00N 34°37' E 135°13'0 0.1
2017-Nov-12 07:30N 34°37' E 135°13'0 0.0
2017-Nov-12 07:00N 34°37' E 135°13'0 0.0
2017-Nov-12 06:30N 34°37' E 135°13'0 0.0
2017-Nov-12 06:00N 34°37' E 135°13'0 0.0
2017-Nov-12 05:30N 34°37' E 135°13'0 0.0
2017-Nov-12 05:00N 34°37' E 135°13'0 0.0
2017-Nov-12 04:30N 34°37' E 135°13'0 0.0
2017-Nov-12 04:00N 34°37' E 135°13'0 0.0
2017-Nov-12 03:30N 34°37' E 135°13'0 0.0
2017-Nov-12 03:00N 34°37' E 135°13'0 0.1
2017-Nov-12 02:30N 34°37' E 135°13'0 0.0
2017-Nov-12 02:00N 34°37' E 135°13'0 0.1
2017-Nov-12 01:30N 34°37' E 135°13'0 0.0
2017-Nov-12 01:00N 34°37' E 135°13'0 0.0
2017-Nov-12 00:30N 34°37' E 135°13'0 0.0
2017-Nov-11 23:59N 34°37' E 135°13'0 0.0
2017-Nov-11 23:30N 34°37' E 135°13'0 0.0
2017-Nov-11 23:00N 34°37' E 135°13'0 0.0
2017-Nov-11 22:30N 34°37' E 135°13'0 0.0
2017-Nov-11 22:00N 34°37' E 135°13'0 0.0
2017-Nov-11 21:30N 34°37' E 135°13'0 0.0
2017-Nov-11 21:00N 34°37' E 135°13'0 0.0
2017-Nov-11 20:30N 34°37' E 135°13'0 0.1
2017-Nov-11 20:00N 34°37' E 135°13'0 0.0
2017-Nov-11 19:30N 34°37' E 135°13'0 0.1
2017-Nov-11 19:00N 34°37' E 135°13'0 0.0
2017-Nov-11 18:30N 34°37' E 135°13'0 0.1
2017-Nov-11 18:00N 34°37' E 135°13'0 0.0
2017-Nov-11 17:30N 34°37' E 135°13'0 0.0
2017-Nov-11 17:00N 34°37' E 135°13'0 0.0
2017-Nov-11 16:30N 34°37' E 135°13'0 0.0
2017-Nov-11 16:00N 34°37' E 135°13'0 0.0
2017-Nov-11 15:30N 34°37' E 135°13'0 0.0
2017-Nov-11 15:00N 34°37' E 135°13'0 0.1
2017-Nov-11 14:30N 34°37' E 135°13'0 0.0
2017-Nov-11 14:00N 34°37' E 135°13'0 0.1
2017-Nov-11 13:30N 34°37' E 135°13'4 8.6
2017-Nov-11 13:00N 34°36' E 135°08'510.6
2017-Nov-11 12:29N 34°37' E 135°01'  

Dump ship's entire track history